Time;durP1;ratioP1;P1;durP2;ratioP2;P2;SDS_P1;SDS_P2;PMS_P1;PMS_P2;Temp;Humidity;BMP_temperature;BMP_pressure;BME280_temperature;BME280_humidity;BME280_pressure;Samples;Min_cycle;Max_cycle;Signal;HPM_P1;HPM_P2
2022/04/21 00:02:22;;;;;;;1.63;1.53;;;;;;;;;;6190306;23;20221;-84
2022/04/21 00:04:50;;;;;;;1.23;1.20;;;;;;;;;;6190757;23;20181;-84
2022/04/21 00:07:19;;;;;;;2.50;2.33;;;;;;;;;;6190489;23;20194;-84
2022/04/21 00:09:47;;;;;;;2.50;2.30;;;;;;;;;;6190832;23;20181;-84
2022/04/21 00:12:15;;;;;;;2.07;1.93;;;;;;;;;;6190882;23;20223;-84
2022/04/21 00:14:44;;;;;;;0.83;0.83;;;;;;;;;;6217242;23;20179;-84
2022/04/21 00:17:12;;;;;;;2.17;1.97;;;;;;;;;;6190049;23;20170;-84
2022/04/21 00:19:42;;;;;;;1.03;1.03;;;;;;;;;;6189756;23;20225;-84
2022/04/21 00:24:56;;;;;;;0.67;0.67;;;;;;;;;;6190553;23;20182;-84
2022/04/21 00:27:25;;;;;;;0.70;0.70;;;;;;;;;;6189956;23;20204;-84
2022/04/21 00:29:53;;;;;;;0.80;0.80;;;;;;;;;;6190595;23;20185;-84
2022/04/21 00:32:22;;;;;;;1.63;1.53;;;;;;;;;;6215675;23;20253;-84
2022/04/21 00:34:51;;;;;;;1.80;1.70;;;;;;;;;;6216242;23;20214;-84
2022/04/21 00:37:20;;;;;;;1.00;1.00;;;;;;;;;;6189894;23;20171;-84
2022/04/21 00:39:50;;;;;;;1.13;1.13;;;;;;;;;;6190389;23;20209;-84
2022/04/21 00:42:18;;;;;;;2.23;2.03;;;;;;;;;;6190469;23;20207;-84
2022/04/21 00:44:49;;;;;;;2.43;1.70;;;;;;;;;;6216728;23;20197;-84
2022/04/21 00:47:18;;;;;;;1.17;1.17;;;;;;;;;;6190486;23;20208;-84
2022/04/21 00:49:47;;;;;;;0.83;0.83;;;;;;;;;;6189943;23;20174;-84
2022/04/21 00:52:17;;;;;;;3.77;1.20;;;;;;;;;;6216622;23;20224;-84
2022/04/21 00:54:45;;;;;;;2.17;1.17;;;;;;;;;;6189687;23;20182;-84
2022/04/21 00:57:14;;;;;;;2.33;2.17;;;;;;;;;;6190635;23;20308;-84
2022/04/21 00:59:44;;;;;;;0.67;0.67;;;;;;;;;;6189873;23;20209;-84
2022/04/21 01:05:00;;;;;;;0.90;0.90;;;;;;;;;;6189567;23;20177;-84
2022/04/21 01:07:30;;;;;;;0.70;0.70;;;;;;;;;;6216521;23;20189;-84
2022/04/21 01:09:58;;;;;;;2.80;2.60;;;;;;;;;;6190044;23;20178;-84
2022/04/21 01:12:28;;;;;;;2.33;1.83;;;;;;;;;;6216417;23;20183;-84
2022/04/21 01:14:56;;;;;;;1.97;1.73;;;;;;;;;;6215143;23;20170;-84
2022/04/21 01:17:31;;;;;;;4.27;1.50;;;;;;;;;;6216205;23;20252;-84
2022/04/21 01:20:00;;;;;;;1.27;1.27;;;;;;;;;;6190091;23;20221;-84
2022/04/21 01:22:30;;;;;;;0.70;0.70;;;;;;;;;;6216091;23;20174;-84
2022/04/21 01:24:59;;;;;;;1.33;1.27;;;;;;;;;;6216297;23;20222;-84
2022/04/21 01:27:29;;;;;;;0.60;0.60;;;;;;;;;;6216163;23;20197;-83
2022/04/21 01:29:57;;;;;;;1.80;1.77;;;;;;;;;;6189962;23;20174;-84
2022/04/21 01:32:26;;;;;;;1.50;1.40;;;;;;;;;;6189945;23;20173;-84
2022/04/21 01:34:54;;;;;;;2.43;2.23;;;;;;;;;;6189412;23;20210;-84
2022/04/21 01:42:56;;;;;;;1.53;1.43;;;;;;;;;;6189767;23;20227;-84
2022/04/21 01:45:25;;;;;;;1.30;1.30;;;;;;;;;;6214728;23;20174;-84
2022/04/21 01:47:53;;;;;;;1.87;1.77;;;;;;;;;;6189340;23;20188;-84
2022/04/21 01:50:22;;;;;;;0.70;0.70;;;;;;;;;;6189673;23;20187;-84
2022/04/21 01:52:50;;;;;;;0.60;0.60;;;;;;;;;;6189594;23;20174;-84
2022/04/21 01:55:20;;;;;;;1.23;1.23;;;;;;;;;;6216028;23;20174;-84
2022/04/21 01:57:49;;;;;;;1.60;1.60;;;;;;;;;;6189898;23;20212;-84
2022/04/21 02:00:17;;;;;;;1.70;1.70;;;;;;;;;;6214824;23;20170;-84
2022/04/21 02:02:46;;;;;;;1.10;1.10;;;;;;;;;;6189603;23;20183;-84
2022/04/21 02:05:14;;;;;;;1.87;1.77;;;;;;;;;;6189723;23;20204;-84
2022/04/21 02:07:44;;;;;;;4.33;2.83;;;;;;;;;;6216206;23;20186;-84
2022/04/21 02:10:13;;;;;;;0.87;0.87;;;;;;;;;;6189372;23;20178;-84
2022/04/21 02:12:43;;;;;;;2.30;2.20;;;;;;;;;;6215628;23;20170;-84
2022/04/21 02:15:11;;;;;;;3.47;2.90;;;;;;;;;;6216282;23;20170;-84
2022/04/21 02:17:40;;;;;;;0.77;0.77;;;;;;;;;;6189541;23;20173;-84
2022/04/21 02:20:09;;;;;;;0.70;0.70;;;;;;;;;;6189802;23;20184;-84
2022/04/21 02:22:38;;;;;;;0.80;0.80;;;;;;;;;;6189734;23;20267;-84
2022/04/21 02:25:08;;;;;;;1.80;1.80;;;;;;;;;;6189488;23;20178;-84
2022/04/21 02:27:36;;;;;;;0.60;0.60;;;;;;;;;;6189171;23;20251;-84
2022/04/21 02:30:07;;;;;;;1.10;1.10;;;;;;;;;;6189286;23;20213;-84
2022/04/21 02:32:36;;;;;;;1.40;1.40;;;;;;;;;;6189375;23;20264;-83
2022/04/21 02:35:05;;;;;;;4.63;2.80;;;;;;;;;;6215307;23;20206;-84
2022/04/21 02:37:36;;;;;;;1.03;1.03;;;;;;;;;;6215875;23;20167;-84
2022/04/21 02:40:05;;;;;;;3.03;2.70;;;;;;;;;;6189166;23;20428;-84
2022/04/21 02:42:33;;;;;;;2.37;2.27;;;;;;;;;;6189318;23;20228;-84
2022/04/21 02:45:04;;;;;;;1.43;1.33;;;;;;;;;;6215774;23;20548;-84
2022/04/21 02:47:36;;;;;;;2.93;1.57;;;;;;;;;;6189341;23;20539;-84
2022/04/21 02:50:05;;;;;;;3.83;3.53;;;;;;;;;;6188821;23;20196;-84
2022/04/21 02:52:35;;;;;;;3.83;2.50;;;;;;;;;;6189090;23;20178;-84
2022/04/21 02:57:49;;;;;;;1.30;1.20;;;;;;;;;;6215980;23;20176;-84
2022/04/21 03:00:18;;;;;;;1.90;1.80;;;;;;;;;;6215514;23;20184;-84
2022/04/21 03:02:48;;;;;;;4.67;3.83;;;;;;;;;;6189814;23;20264;-84
2022/04/21 03:05:16;;;;;;;0.70;0.70;;;;;;;;;;6189341;23;20218;-84
2022/04/21 03:07:45;;;;;;;0.97;0.97;;;;;;;;;;6215372;23;20217;-84
2022/04/21 03:10:13;;;;;;;1.83;1.73;;;;;;;;;;6189169;23;20181;-84
2022/04/21 03:12:42;;;;;;;1.23;1.23;;;;;;;;;;6189056;23;20179;-84
2022/04/21 03:15:11;;;;;;;3.23;2.83;;;;;;;;;;6216060;23;20174;-84
2022/04/21 03:17:40;;;;;;;4.33;3.93;;;;;;;;;;6188716;23;20357;-84
2022/04/21 03:24:18;;;;;;;2.50;2.30;;;;;;;;;;6189108;23;20174;-85
2022/04/21 03:25:45;;;;;;;1.43;1.43;;;;;;;;;;6215518;23;20198;-84
2022/04/21 03:28:14;;;;;;;2.47;2.37;;;;;;;;;;6214938;23;20248;-84
2022/04/21 03:30:42;;;;;;;1.23;1.23;;;;;;;;;;6189008;23;20182;-84
2022/04/21 03:33:11;;;;;;;1.10;1.10;;;;;;;;;;6188661;23;20276;-85
2022/04/21 03:35:41;;;;;;;2.80;2.60;;;;;;;;;;6214970;23;20187;-84
2022/04/21 03:38:09;;;;;;;1.43;1.33;;;;;;;;;;6215137;23;20177;-84
2022/04/21 03:40:38;;;;;;;0.70;0.70;;;;;;;;;;6188649;23;20181;-84
2022/04/21 03:43:08;;;;;;;0.80;0.80;;;;;;;;;;6215109;23;20171;-84
2022/04/21 03:45:36;;;;;;;0.80;0.80;;;;;;;;;;6188755;23;20175;-85
2022/04/21 03:48:05;;;;;;;0.80;0.80;;;;;;;;;;6188971;23;20196;-84
2022/04/21 03:50:34;;;;;;;0.70;0.70;;;;;;;;;;6188912;23;20247;-84
2022/04/21 03:53:05;;;;;;;0.80;0.80;;;;;;;;;;6215832;23;20200;-84
2022/04/21 03:55:34;;;;;;;0.80;0.80;;;;;;;;;;6217016;23;20225;-84
2022/04/21 03:58:02;;;;;;;1.27;1.27;;;;;;;;;;6190664;23;20180;-84
2022/04/21 04:00:31;;;;;;;2.00;1.90;;;;;;;;;;6216477;23;20229;-85
2022/04/21 04:02:59;;;;;;;0.70;0.70;;;;;;;;;;6190440;23;20178;-84
2022/04/21 04:05:28;;;;;;;0.60;0.60;;;;;;;;;;6190270;23;20197;-85
2022/04/21 04:10:53;;;;;;;0.70;0.70;;;;;;;;;;6190127;23;20194;-84
2022/04/21 04:13:22;;;;;;;1.70;1.70;;;;;;;;;;6190997;23;20180;-85
2022/04/21 04:15:51;;;;;;;1.00;1.00;;;;;;;;;;6190249;23;20363;-84
2022/04/21 04:18:20;;;;;;;2.03;1.43;;;;;;;;;;6216677;23;20166;-84
2022/04/21 04:20:49;;;;;;;2.73;1.53;;;;;;;;;;6190490;23;20178;-84
2022/04/21 04:23:17;;;;;;;4.10;3.70;;;;;;;;;;6190982;23;20185;-84
2022/04/21 04:25:47;;;;;;;2.10;2.00;;;;;;;;;;6190343;23;20201;-84
2022/04/21 04:28:15;;;;;;;2.53;2.33;;;;;;;;;;6190380;23;20201;-84
2022/04/21 04:30:44;;;;;;;1.83;1.73;;;;;;;;;;6190386;23;20180;-84
2022/04/21 04:33:12;;;;;;;3.13;2.87;;;;;;;;;;6189535;23;20206;-84
2022/04/21 04:35:41;;;;;;;4.03;3.63;;;;;;;;;;6190446;23;20194;-84
2022/04/21 04:38:09;;;;;;;3.13;2.87;;;;;;;;;;6190198;23;20188;-84
2022/04/21 04:40:37;;;;;;;2.77;2.57;;;;;;;;;;6190176;23;20178;-84
2022/04/21 04:43:06;;;;;;;1.63;1.50;;;;;;;;;;6190575;23;20203;-84
2022/04/21 04:48:21;;;;;;;10.17;3.63;;;;;;;;;;6190175;23;20202;-84
2022/04/21 04:50:49;;;;;;;3.53;3.23;;;;;;;;;;6190342;23;20224;-84
2022/04/21 04:53:17;;;;;;;2.03;1.93;;;;;;;;;;6189942;23;20180;-84
2022/04/21 04:55:47;;;;;;;3.60;2.80;;;;;;;;;;6189960;23;20227;-84
2022/04/21 04:58:17;;;;;;;7.77;3.97;;;;;;;;;;6190352;23;20185;-84
2022/04/21 05:00:48;;;;;;;2.40;2.30;;;;;;;;;;6216164;23;20173;-84
2022/04/21 05:03:19;;;;;;;1.67;1.60;;;;;;;;;;6216269;23;20257;-84
2022/04/21 05:05:47;;;;;;;0.83;0.83;;;;;;;;;;6216308;23;20193;-84
2022/04/21 05:08:16;;;;;;;1.10;1.10;;;;;;;;;;6189547;23;20174;-84
2022/04/21 05:10:45;;;;;;;1.10;1.10;;;;;;;;;;6189502;23;20232;-84
2022/04/21 05:13:13;;;;;;;0.70;0.70;;;;;;;;;;6215871;23;20173;-85
2022/04/21 05:15:44;;;;;;;1.33;1.33;;;;;;;;;;6215038;23;20191;-85
2022/04/21 05:18:13;;;;;;;0.90;0.90;;;;;;;;;;6215987;23;20175;-85
2022/04/21 05:20:41;;;;;;;2.83;2.63;;;;;;;;;;6189688;23;20243;-85
2022/04/21 05:23:12;;;;;;;1.97;1.87;;;;;;;;;;6189341;23;20182;-82
2022/04/21 05:25:40;;;;;;;2.33;2.23;;;;;;;;;;6189749;23;20175;-82
2022/04/21 05:28:10;;;;;;;2.10;1.93;;;;;;;;;;6216267;23;20173;-82
2022/04/21 05:30:58;;;;;;;2.70;2.60;;;;;;;;;;6215545;23;20191;-82
2022/04/21 05:33:29;;;;;;;4.90;2.43;;;;;;;;;;6189102;23;20210;-83
2022/04/21 05:35:58;;;;;;;3.50;3.20;;;;;;;;;;6189604;23;20265;-82
2022/04/21 05:38:27;;;;;;;1.93;1.77;;;;;;;;;;6189273;23;20208;-83
2022/04/21 05:40:56;;;;;;;2.07;1.97;;;;;;;;;;6189846;23;20174;-83
2022/04/21 05:43:28;;;;;;;3.63;3.33;;;;;;;;;;6217688;23;20174;-82
2022/04/21 05:45:56;;;;;;;2.40;2.27;;;;;;;;;;6189814;23;20174;-83
2022/04/21 05:48:25;;;;;;;4.33;3.57;;;;;;;;;;6189698;23;20178;-82
2022/04/21 05:51:01;;;;;;;2.67;2.37;;;;;;;;;;6189532;23;20171;-83
2022/04/21 05:53:29;;;;;;;3.53;2.53;;;;;;;;;;6189774;23;20242;-82
2022/04/21 05:55:58;;;;;;;7.53;4.07;;;;;;;;;;6190005;23;20177;-82
2022/04/21 05:58:27;;;;;;;2.20;2.00;;;;;;;;;;6189899;23;20182;-82
2022/04/21 06:00:55;;;;;;;2.90;2.70;;;;;;;;;;6216555;23;20181;-82
2022/04/21 06:03:31;;;;;;;6.63;4.93;;;;;;;;;;6190572;23;20170;-82
2022/04/21 06:06:00;;;;;;;4.37;3.97;;;;;;;;;;6215385;23;20190;-82
2022/04/21 06:08:29;;;;;;;4.43;3.37;;;;;;;;;;6190820;23;20194;-83
2022/04/21 06:10:57;;;;;;;5.03;3.53;;;;;;;;;;6189672;23;20268;-84
2022/04/21 06:13:26;;;;;;;4.13;3.30;;;;;;;;;;6188642;23;20182;-84
2022/04/21 06:15:54;;;;;;;2.50;2.30;;;;;;;;;;6188722;23;20174;-83
2022/04/21 06:18:23;;;;;;;6.00;4.63;;;;;;;;;;6188615;23;20217;-83
2022/04/21 06:20:52;;;;;;;13.57;5.73;;;;;;;;;;6188796;23;20181;-82
2022/04/21 06:23:22;;;;;;;3.00;2.70;;;;;;;;;;6188566;23;20182;-81
2022/04/21 06:25:53;;;;;;;6.23;4.57;;;;;;;;;;6188479;23;20182;-82
2022/04/21 06:28:22;;;;;;;3.37;3.07;;;;;;;;;;6188732;23;20228;-82
2022/04/21 06:30:50;;;;;;;8.27;5.03;;;;;;;;;;6188541;23;20190;-83
2022/04/21 06:33:19;;;;;;;0.80;0.80;;;;;;;;;;6213398;23;20202;-82
2022/04/21 06:35:47;;;;;;;6.00;4.30;;;;;;;;;;6215101;23;20181;-82
2022/04/21 06:38:16;;;;;;;8.93;3.53;;;;;;;;;;6188779;23;20206;-82
2022/04/21 06:40:46;;;;;;;5.07;4.47;;;;;;;;;;6214804;23;20175;-82
2022/04/21 06:48:47;;;;;;;4.50;3.93;;;;;;;;;;6188375;23;20183;-79
2022/04/21 06:51:17;;;;;;;3.40;2.97;;;;;;;;;;6215199;23;20244;-80
2022/04/21 06:53:45;;;;;;;3.80;3.43;;;;;;;;;;6214962;23;20177;-81
2022/04/21 06:56:16;;;;;;;2.60;2.07;;;;;;;;;;6188989;23;20182;-81
2022/04/21 06:58:45;;;;;;;5.93;5.37;;;;;;;;;;6188341;23;20182;-81
2022/04/21 07:01:13;;;;;;;4.17;2.87;;;;;;;;;;6188869;23;20181;-80
2022/04/21 07:03:42;;;;;;;4.00;3.20;;;;;;;;;;6188276;23;20174;-81
2022/04/21 07:06:11;;;;;;;3.43;3.13;;;;;;;;;;6188573;23;20198;-81
2022/04/21 07:08:40;;;;;;;4.03;3.63;;;;;;;;;;6188191;23;20182;-81
2022/04/21 07:11:08;;;;;;;3.80;3.20;;;;;;;;;;6188703;23;20198;-81
2022/04/21 07:13:38;;;;;;;2.97;2.70;;;;;;;;;;6188308;23;20178;-81
2022/04/21 07:16:07;;;;;;;5.57;4.63;;;;;;;;;;6188783;23;20174;-81
2022/04/21 07:18:36;;;;;;;4.57;4.17;;;;;;;;;;6188503;23;20179;-81
2022/04/21 07:21:07;;;;;;;4.90;4.40;;;;;;;;;;6188685;23;20179;-81
2022/04/21 07:23:36;;;;;;;4.43;3.77;;;;;;;;;;6187929;23;20178;-82
2022/04/21 07:26:05;;;;;;;8.90;5.47;;;;;;;;;;6188935;23;20175;-82
2022/04/21 07:28:33;;;;;;;4.53;3.90;;;;;;;;;;6190011;23;20185;-82
2022/04/21 07:31:03;;;;;;;7.00;4.87;;;;;;;;;;6190367;23;20195;-82
2022/04/21 07:33:33;;;;;;;9.67;5.80;;;;;;;;;;6190462;23;20207;-82
2022/04/21 07:36:05;;;;;;;7.73;6.07;;;;;;;;;;6190256;23;20185;-82
2022/04/21 07:38:34;;;;;;;6.17;5.57;;;;;;;;;;6190299;23;20175;-82
2022/04/21 07:41:04;;;;;;;12.97;6.20;;;;;;;;;;6190369;23;20178;-82
2022/04/21 07:43:33;;;;;;;6.07;5.57;;;;;;;;;;6190007;23;20179;-82
2022/04/21 07:46:03;;;;;;;7.47;5.50;;;;;;;;;;6215597;23;20171;-82
2022/04/21 07:51:14;;;;;;;7.10;4.47;;;;;;;;;;6188623;23;20206;-82
2022/04/21 07:53:42;;;;;;;6.33;3.73;;;;;;;;;;6190240;23;20272;-82
2022/04/21 07:56:20;;;;;;;3.40;2.60;;;;;;;;;;6190556;23;20185;-83
2022/04/21 07:58:49;;;;;;;5.40;3.67;;;;;;;;;;6190242;23;20183;-82
2022/04/21 08:01:19;;;;;;;4.53;4.13;;;;;;;;;;6189975;23;20172;-82
2022/04/21 08:03:48;;;;;;;6.63;5.70;;;;;;;;;;6189984;23;20216;-82
2022/04/21 08:06:16;;;;;;;5.90;4.27;;;;;;;;;;6190468;23;20202;-82
2022/04/21 08:08:45;;;;;;;6.87;5.20;;;;;;;;;;6190007;23;20183;-82
2022/04/21 08:11:14;;;;;;;6.03;4.23;;;;;;;;;;6190155;23;20195;-81
2022/04/21 08:13:42;;;;;;;5.97;4.93;;;;;;;;;;6189979;23;20265;-82
2022/04/21 08:16:11;;;;;;;4.80;4.30;;;;;;;;;;6189879;23;20179;-82
2022/04/21 08:18:41;;;;;;;5.43;4.93;;;;;;;;;;6216447;23;20195;-82
2022/04/21 08:21:10;;;;;;;6.53;5.47;;;;;;;;;;6190119;23;20210;-83
2022/04/21 08:32:33;;;;;;;5.73;4.93;;;;;;;;;;6189727;23;20184;-82
2022/04/21 08:33:00;;;;;;;7.63;6.40;;;;;;;;;;6189191;23;20188;-83
2022/04/21 08:35:30;;;;;;;5.17;4.13;;;;;;;;;;6214557;23;20182;-80
2022/04/21 08:37:59;;;;;;;4.97;4.47;;;;;;;;;;6189650;23;20175;-80
2022/04/21 08:40:29;;;;;;;6.37;4.33;;;;;;;;;;6189729;23;20172;-81
2022/04/21 08:42:58;;;;;;;4.30;3.90;;;;;;;;;;6189409;23;20204;-82
2022/04/21 08:45:27;;;;;;;4.07;3.67;;;;;;;;;;6189755;23;20217;-82
2022/04/21 08:47:58;;;;;;;4.53;4.13;;;;;;;;;;6214784;23;20265;-80
2022/04/21 08:50:27;;;;;;;3.00;2.70;;;;;;;;;;6189570;23;20261;-81
2022/04/21 08:52:59;;;;;;;5.07;4.50;;;;;;;;;;6189344;23;20186;-81
2022/04/21 08:55:29;;;;;;;2.80;2.50;;;;;;;;;;6188983;23;20222;-81
2022/04/21 08:57:57;;;;;;;5.17;3.50;;;;;;;;;;6189581;23;20181;-81
2022/04/21 09:00:26;;;;;;;3.43;2.47;;;;;;;;;;6189261;23;20173;-81
2022/04/21 09:02:54;;;;;;;5.57;4.33;;;;;;;;;;6188945;23;20216;-81
2022/04/21 09:05:23;;;;;;;2.67;2.37;;;;;;;;;;6189522;23;20204;-83
2022/04/21 09:07:52;;;;;;;4.67;3.47;;;;;;;;;;6189435;23;20176;-82
2022/04/21 09:10:42;;;;;;;2.37;2.17;;;;;;;;;;6189233;23;20203;-81
2022/04/21 09:13:11;;;;;;;4.37;3.53;;;;;;;;;;6189371;23;20185;-83
2022/04/21 09:15:43;;;;;;;3.57;3.23;;;;;;;;;;6189322;23;20235;-82
2022/04/21 09:18:13;;;;;;;3.60;3.10;;;;;;;;;;6189441;23;20185;-81
2022/04/21 09:20:41;;;;;;;3.93;2.70;;;;;;;;;;6189531;23;20180;-81
2022/04/21 09:23:11;;;;;;;5.07;4.57;;;;;;;;;;6189452;23;20185;-81
2022/04/21 09:25:47;;;;;;;7.23;2.93;;;;;;;;;;6189448;23;20188;-82
2022/04/21 09:28:23;;;;;;;3.53;2.63;;;;;;;;;;6189535;23;20187;-82
2022/04/21 09:30:52;;;;;;;3.10;2.57;;;;;;;;;;6188308;23;20195;-81
2022/04/21 09:33:30;;;;;;;4.00;3.70;;;;;;;;;;6188809;23;20215;-81
2022/04/21 09:36:00;;;;;;;5.27;3.80;;;;;;;;;;6189126;23;20188;-82
2022/04/21 09:38:29;;;;;;;4.17;2.70;;;;;;;;;;6189449;23;20202;-82
2022/04/21 09:41:05;;;;;;;3.30;3.00;;;;;;;;;;6189217;23;20177;-81
2022/04/21 09:43:37;;;;;;;4.30;2.97;;;;;;;;;;6189464;23;20222;-82
2022/04/21 09:46:11;;;;;;;3.77;3.03;;;;;;;;;;6189130;23;20180;-82
2022/04/21 09:48:40;;;;;;;5.40;2.30;;;;;;;;;;6189110;23;20184;-81
2022/04/21 09:51:11;;;;;;;3.20;2.90;;;;;;;;;;6188987;23;20189;-82
2022/04/21 09:53:50;;;;;;;3.03;2.47;;;;;;;;;;6189094;23;20273;-80
2022/04/21 09:56:34;;;;;;;5.20;3.60;;;;;;;;;;6187621;23;20185;-81
2022/04/21 09:59:03;;;;;;;3.97;3.60;;;;;;;;;;6187827;23;20182;-83
2022/04/21 10:01:34;;;;;;;3.60;2.93;;;;;;;;;;6186766;23;20177;-81
2022/04/21 10:04:06;;;;;;;5.00;2.93;;;;;;;;;;6187301;23;20173;-83
2022/04/21 10:06:37;;;;;;;4.27;3.33;;;;;;;;;;6187565;23;20229;-81
2022/04/21 10:09:06;;;;;;;3.73;2.90;;;;;;;;;;6186800;23;20209;-83
2022/04/21 10:11:38;;;;;;;4.27;3.53;;;;;;;;;;6189065;23;20284;-85
2022/04/21 10:14:12;;;;;;;2.83;2.63;;;;;;;;;;6192035;23;20181;-85
2022/04/21 10:16:51;;;;;;;3.83;3.53;;;;;;;;;;6188170;23;20184;-83
2022/04/21 10:19:24;;;;;;;3.17;2.40;;;;;;;;;;6185068;23;20203;-82
2022/04/21 10:21:55;;;;;;;5.80;4.53;;;;;;;;;;6186097;23;20264;-83
2022/04/21 10:24:32;;;;;;;3.50;3.07;;;;;;;;;;6186066;23;20187;-82
2022/04/21 10:27:03;;;;;;;3.37;3.17;;;;;;;;;;6187129;23;20187;-83
2022/04/21 10:29:31;;;;;;;5.57;3.60;;;;;;;;;;6186223;23;20184;-83
2022/04/21 10:32:07;;;;;;;8.30;3.60;;;;;;;;;;6159304;23;20201;-83
2022/04/21 10:34:37;;;;;;;5.37;3.17;;;;;;;;;;6186740;23;20213;-81
2022/04/21 10:37:08;;;;;;;3.40;3.07;;;;;;;;;;6186521;23;20185;-83
2022/04/21 10:39:37;;;;;;;3.70;3.30;;;;;;;;;;6185666;23;20185;-85
2022/04/21 10:42:19;;;;;;;3.63;3.33;;;;;;;;;;6184690;23;20256;-84
2022/04/21 10:44:49;;;;;;;3.50;3.20;;;;;;;;;;6183366;23;20177;-85
2022/04/21 10:47:41;;;;;;;5.50;3.37;;;;;;;;;;6184496;23;20181;-85
2022/04/21 10:50:14;;;;;;;6.23;3.30;;;;;;;;;;6178383;23;20240;-85
2022/04/21 10:58:53;;;;;;;4.10;2.77;;;;;;;;;;6186203;23;20213;-85
2022/04/21 11:01:35;;;;;;;4.27;3.13;;;;;;;;;;6187110;23;20181;-86
2022/04/21 11:04:20;;;;;;;2.03;1.87;;;;;;;;;;6190176;23;20188;-84
2022/04/21 11:07:11;;;;;;;3.40;2.70;;;;;;;;;;6188778;23;20239;-84
2022/04/21 11:09:48;;;;;;;3.50;3.10;;;;;;;;;;6190799;23;20207;-84
2022/04/21 11:12:44;;;;;;;3.17;2.87;;;;;;;;;;6214931;23;20204;-86
2022/04/21 11:15:46;;;;;;;3.23;2.90;;;;;;;;;;6188227;23;20184;-83
2022/04/21 11:18:20;;;;;;;3.33;3.03;;;;;;;;;;6094402;23;20183;-85
2022/04/21 11:20:53;;;;;;;4.17;3.10;;;;;;;;;;6069987;23;20496;-86
2022/04/21 11:23:26;;;;;;;5.70;4.27;;;;;;;;;;6134982;23;20181;-85
2022/04/21 11:26:03;;;;;;;2.80;2.40;;;;;;;;;;6190319;23;20178;-86
2022/04/21 11:28:37;;;;;;;4.60;3.70;;;;;;;;;;6188145;23;20177;-86
2022/04/21 11:31:06;;;;;;;2.90;2.60;;;;;;;;;;6188483;23;20197;-84
2022/04/21 11:33:37;;;;;;;5.37;2.43;;;;;;;;;;6187272;23;20209;-84
2022/04/21 11:36:06;;;;;;;6.97;3.73;;;;;;;;;;6187230;23;20224;-84
2022/04/21 11:38:34;;;;;;;2.93;2.73;;;;;;;;;;6187431;23;20198;-83
2022/04/21 11:41:03;;;;;;;5.00;3.97;;;;;;;;;;6187215;23;20208;-84
2022/04/21 11:43:32;;;;;;;3.13;2.80;;;;;;;;;;6186698;23;20167;-84
2022/04/21 11:46:01;;;;;;;5.30;3.17;;;;;;;;;;6214138;23;20171;-84
2022/04/21 11:48:31;;;;;;;2.27;2.03;;;;;;;;;;6187497;23;20268;-83
2022/04/21 11:51:02;;;;;;;2.37;2.10;;;;;;;;;;6187197;23;20171;-82
2022/04/21 11:53:33;;;;;;;2.70;2.37;;;;;;;;;;6187181;23;20190;-83
2022/04/21 11:56:02;;;;;;;3.20;2.83;;;;;;;;;;6187722;23;20186;-83
2022/04/21 11:58:31;;;;;;;3.70;3.27;;;;;;;;;;6187005;23;20182;-84
2022/04/21 12:06:38;;;;;;;3.97;3.00;;;;;;;;;;6186367;23;20293;-84
2022/04/21 12:09:08;;;;;;;2.63;2.23;;;;;;;;;;6186106;23;20182;-83
2022/04/21 12:11:36;;;;;;;5.83;2.97;;;;;;;;;;6186211;23;20209;-82
2022/04/21 12:14:05;;;;;;;2.87;2.57;;;;;;;;;;6185978;23;20230;-81
2022/04/21 12:16:41;;;;;;;1.67;1.57;;;;;;;;;;6186320;23;20174;-82
2022/04/21 12:19:14;;;;;;;4.90;3.63;;;;;;;;;;6186807;23;20174;-81
2022/04/21 12:21:44;;;;;;;4.60;2.63;;;;;;;;;;6187721;23;20178;-83
2022/04/21 12:24:19;;;;;;;3.20;2.90;;;;;;;;;;6187798;23;20224;-83
2022/04/21 12:26:49;;;;;;;4.03;3.03;;;;;;;;;;6186847;23;20186;-83
2022/04/21 12:29:17;;;;;;;3.23;2.60;;;;;;;;;;6186371;23;20265;-83
2022/04/21 12:31:49;;;;;;;3.00;2.73;;;;;;;;;;6214682;23;20245;-81
2022/04/21 12:34:22;;;;;;;5.60;3.10;;;;;;;;;;6186411;23;20244;-82
2022/04/21 12:36:52;;;;;;;3.37;2.70;;;;;;;;;;6187067;23;20261;-83
2022/04/21 12:39:21;;;;;;;2.97;2.53;;;;;;;;;;6186818;23;20201;-83
2022/04/21 12:42:10;;;;;;;3.60;3.07;;;;;;;;;;6186596;23;20182;-82
2022/04/21 12:44:42;;;;;;;5.73;2.70;;;;;;;;;;6187222;23;20274;-83
2022/04/21 12:47:15;;;;;;;2.93;2.60;;;;;;;;;;6183498;23;20224;-85
2022/04/21 12:50:05;;;;;;;5.43;2.80;;;;;;;;;;6188463;23;20170;-83
2022/04/21 12:52:39;;;;;;;2.33;2.10;;;;;;;;;;6177136;23;20194;-84
2022/04/21 12:55:09;;;;;;;2.83;2.63;;;;;;;;;;6187150;23;20203;-85
2022/04/21 12:57:59;;;;;;;4.73;4.20;;;;;;;;;;6186782;23;20178;-85
2022/04/21 13:00:28;;;;;;;2.50;2.30;;;;;;;;;;6188740;23;20201;-84
2022/04/21 13:02:56;;;;;;;3.53;2.57;;;;;;;;;;6188649;23;20185;-85
2022/04/21 13:05:25;;;;;;;3.37;2.27;;;;;;;;;;6214565;23;20198;-85
2022/04/21 13:07:55;;;;;;;1.23;1.23;;;;;;;;;;6189649;23;20232;-84
2022/04/21 13:10:24;;;;;;;2.40;2.20;;;;;;;;;;6189414;23;20178;-84
2022/04/21 13:12:53;;;;;;;1.87;1.70;;;;;;;;;;6189207;23;20191;-84
2022/04/21 13:15:22;;;;;;;3.03;2.13;;;;;;;;;;6189282;23;20225;-85
2022/04/21 13:17:50;;;;;;;2.97;2.67;;;;;;;;;;6189724;23;20178;-84
2022/04/21 13:23:04;;;;;;;3.13;2.73;;;;;;;;;;6187931;23;20203;-85
2022/04/21 13:25:33;;;;;;;5.57;4.07;;;;;;;;;;6189649;23;20198;-85
2022/04/21 13:28:01;;;;;;;7.60;2.53;;;;;;;;;;6189489;23;20207;-85
2022/04/21 13:30:30;;;;;;;2.87;2.10;;;;;;;;;;6189636;23;20178;-85
2022/04/21 13:35:44;;;;;;;2.63;2.43;;;;;;;;;;6189253;23;20260;-84
2022/04/21 13:38:16;;;;;;;4.87;2.33;;;;;;;;;;6189609;23;20193;-85
2022/04/21 13:40:45;;;;;;;4.17;2.80;;;;;;;;;;6189137;23;20179;-85
2022/04/21 13:43:14;;;;;;;4.67;2.67;;;;;;;;;;6189405;23;20202;-84
2022/04/21 13:46:02;;;;;;;5.97;2.57;;;;;;;;;;6188859;23;20189;-84
2022/04/21 13:48:31;;;;;;;2.93;2.43;;;;;;;;;;6189432;23;20171;-85
2022/04/21 13:51:02;;;;;;;3.80;2.70;;;;;;;;;;6189336;23;20185;-85
2022/04/21 13:53:32;;;;;;;2.17;2.00;;;;;;;;;;6188930;23;20273;-83
2022/04/21 13:56:06;;;;;;;2.40;2.20;;;;;;;;;;6214611;23;20261;-83
2022/04/21 13:58:35;;;;;;;2.27;2.07;;;;;;;;;;6189456;23;20174;-85
2022/04/21 14:01:04;;;;;;;3.00;2.53;;;;;;;;;;6214247;23;20178;-85
2022/04/21 14:03:36;;;;;;;4.83;1.83;;;;;;;;;;6189516;23;20238;-84
2022/04/21 14:06:13;;;;;;;9.13;2.87;;;;;;;;;;6189250;23;20202;-85
2022/04/21 14:08:44;;;;;;;2.97;2.67;;;;;;;;;;6188799;23;20177;-85
2022/04/21 14:11:14;;;;;;;1.83;1.70;;;;;;;;;;6189877;23;20179;-85
2022/04/21 14:13:43;;;;;;;2.77;2.57;;;;;;;;;;6189145;23;20190;-86
2022/04/21 14:16:12;;;;;;;2.47;2.27;;;;;;;;;;6189601;23;20178;-85
2022/04/21 14:19:00;;;;;;;3.67;3.10;;;;;;;;;;6189049;23;20176;-85
2022/04/21 14:21:29;;;;;;;3.20;2.63;;;;;;;;;;6189063;23;20257;-86
2022/04/21 14:23:59;;;;;;;2.77;2.03;;;;;;;;;;6189457;23;20172;-85
2022/04/21 14:26:29;;;;;;;1.73;1.50;;;;;;;;;;6189148;23;20249;-85
2022/04/21 14:28:58;;;;;;;3.23;2.40;;;;;;;;;;6189517;23;20174;-86
2022/04/21 14:31:26;;;;;;;6.90;3.07;;;;;;;;;;6189128;23;20183;-86
2022/04/21 14:33:55;;;;;;;4.70;2.40;;;;;;;;;;6189072;23;20211;-86
2022/04/21 14:36:24;;;;;;;4.53;2.90;;;;;;;;;;6188772;23;20259;-86
2022/04/21 14:44:28;;;;;;;2.80;2.30;;;;;;;;;;6188968;23;20258;-87
2022/04/21 14:46:57;;;;;;;2.67;2.47;;;;;;;;;;6188952;23;20182;-86
2022/04/21 14:49:46;;;;;;;4.33;2.30;;;;;;;;;;6189038;23;20206;-86
2022/04/21 14:52:15;;;;;;;2.50;2.30;;;;;;;;;;6189181;23;20175;-85
2022/04/21 14:54:43;;;;;;;3.13;2.00;;;;;;;;;;6189076;23;20202;-85
2022/04/21 14:57:14;;;;;;;4.33;2.57;;;;;;;;;;6189415;23;20178;-87
2022/04/21 14:59:43;;;;;;;4.77;3.33;;;;;;;;;;6189554;23;20265;-88
2022/04/21 15:02:12;;;;;;;3.83;2.53;;;;;;;;;;6189171;23;20201;-88
2022/04/21 15:04:43;;;;;;;3.90;3.13;;;;;;;;;;6189426;23;20170;-88
2022/04/21 15:07:12;;;;;;;2.70;2.50;;;;;;;;;;6189461;23;20201;-87
2022/04/21 15:09:41;;;;;;;2.87;2.50;;;;;;;;;;6189598;23;20265;-88
2022/04/21 15:12:10;;;;;;;2.80;2.60;;;;;;;;;;6189866;23;20197;-88
2022/04/21 15:14:41;;;;;;;3.27;2.87;;;;;;;;;;6189712;23;20199;-87
2022/04/21 15:17:11;;;;;;;3.10;2.30;;;;;;;;;;6189466;23;20178;-87
2022/04/21 15:19:43;;;;;;;2.83;2.10;;;;;;;;;;6188551;23;20198;-86
2022/04/21 15:22:12;;;;;;;4.93;3.53;;;;;;;;;;6189402;23;20179;-86
2022/04/21 15:24:42;;;;;;;7.10;3.37;;;;;;;;;;6188898;23;20179;-87
2022/04/21 15:27:10;;;;;;;3.47;3.17;;;;;;;;;;6213941;23;20182;-87
2022/04/21 15:29:40;;;;;;;2.23;2.03;;;;;;;;;;6188810;23;20277;-87
2022/04/21 15:32:09;;;;;;;2.97;2.30;;;;;;;;;;6188681;23;20180;-86
2022/04/21 15:34:38;;;;;;;6.50;3.37;;;;;;;;;;6188627;23;20210;-86
2022/04/21 15:37:08;;;;;;;4.20;3.50;;;;;;;;;;6189184;23;20208;-87
2022/04/21 15:39:36;;;;;;;4.23;2.73;;;;;;;;;;6188841;23;20184;-87
2022/04/21 15:42:05;;;;;;;5.67;3.93;;;;;;;;;;6213649;23;20226;-86
2022/04/21 15:44:34;;;;;;;4.20;2.97;;;;;;;;;;6189161;23;20176;-87
2022/04/21 15:47:05;;;;;;;2.30;2.10;;;;;;;;;;6214207;23;20199;-87
2022/04/21 15:49:34;;;;;;;4.83;2.93;;;;;;;;;;6190859;23;20181;-87
2022/04/21 15:52:03;;;;;;;3.60;3.30;;;;;;;;;;6191393;23;20205;-87
2022/04/21 16:00:04;;;;;;;6.20;3.60;;;;;;;;;;6190427;23;20174;-87
2022/04/21 16:02:34;;;;;;;5.87;4.10;;;;;;;;;;6190194;23;20175;-87
2022/04/21 16:05:03;;;;;;;5.10;3.27;;;;;;;;;;6190843;23;20175;-87
2022/04/21 16:07:31;;;;;;;4.60;3.23;;;;;;;;;;6190551;23;20178;-87
2022/04/21 16:10:00;;;;;;;3.83;3.53;;;;;;;;;;6190197;23;20174;-87